Time;durP1;ratioP1;P1;durP2;ratioP2;P2;SDS_P1;SDS_P2;PMS_P1;PMS_P2;Temp;Humidity;BMP_temperature;BMP_pressure;BME280_temperature;BME280_humidity;BME280_pressure;Samples;Min_cycle;Max_cycle;Signal;HPM_P1;HPM_P2
2022/03/15 00:04:36;;;;;;;8.80;4.80;;;;;;;1.81;100.00;97855.69;10413561;28;20536;-57
2022/03/15 00:09:37;;;;;;;12.40;4.93;;;;;;;1.78;100.00;97854.09;10413028;28;20219;-59
2022/03/15 00:14:37;;;;;;;8.33;4.83;;;;;;;1.73;100.00;97854.31;10413387;28;20230;-58
2022/03/15 00:19:38;;;;;;;12.40;5.70;;;;;;;1.53;100.00;97836.34;10395077;28;20228;-59
2022/03/15 00:24:38;;;;;;;13.83;5.07;;;;;;;1.50;100.00;97828.72;10412761;28;20337;-59
2022/03/15 00:29:39;;;;;;;9.93;5.17;;;;;;;1.53;100.00;97819.13;10412324;28;20262;-59
2022/03/15 00:34:40;;;;;;;6.17;4.40;;;;;;;1.46;100.00;97811.75;10412153;28;20194;-58
2022/03/15 00:39:42;;;;;;;12.83;5.33;;;;;;;1.35;100.00;97820.00;10412199;28;20228;-56
2022/03/15 00:44:43;;;;;;;13.73;5.70;;;;;;;1.20;100.00;97811.19;10394731;28;20203;-58
2022/03/15 00:49:43;;;;;;;12.40;5.17;;;;;;;1.22;100.00;97823.09;10412010;28;20292;-58
2022/03/15 00:54:43;;;;;;;9.60;5.17;;;;;;;1.25;100.00;97820.38;10411626;28;20191;-59
2022/03/15 00:59:44;;;;;;;9.37;5.57;;;;;;;1.24;100.00;97823.03;10411428;28;20377;-57
2022/03/15 01:04:44;;;;;;;8.07;4.27;;;;;;;1.25;100.00;97828.13;10411257;28;20204;-59
2022/03/15 01:09:45;;;;;;;8.50;4.67;;;;;;;1.13;100.00;97839.00;10394513;28;20291;-52
2022/03/15 01:14:46;;;;;;;9.60;4.47;;;;;;;1.20;100.00;97830.09;10411047;28;20185;-52
2022/03/15 01:19:46;;;;;;;7.80;4.20;;;;;;;1.14;100.00;97825.22;10410358;28;20230;-57
2022/03/15 01:24:47;;;;;;;12.70;4.87;;;;;;;1.03;100.00;97832.63;10410691;28;20196;-57
2022/03/15 01:29:47;;;;;;;3.93;2.73;;;;;;;0.85;100.00;97831.69;10410370;28;20228;-56
2022/03/15 01:34:48;;;;;;;10.70;5.10;;;;;;;0.78;100.00;97832.88;10410376;28;20184;-56
2022/03/15 01:39:48;;;;;;;5.93;3.40;;;;;;;0.76;100.00;97821.78;10392301;28;20229;-59
2022/03/15 01:44:49;;;;;;;7.60;4.57;;;;;;;0.74;100.00;97815.88;10392966;28;20192;-58
2022/03/15 01:49:50;;;;;;;8.43;3.87;;;;;;;0.74;100.00;97833.94;10410582;28;20205;-59
2022/03/15 01:54:50;;;;;;;7.13;3.47;;;;;;;0.87;100.00;97829.88;10392408;28;20191;-59
2022/03/15 01:59:52;;;;;;;9.90;4.63;;;;;;;0.89;100.00;97820.34;10409466;28;20223;-59
2022/03/15 02:04:52;;;;;;;10.13;4.73;;;;;;;0.83;100.00;97818.03;10400159;28;20193;-57
2022/03/15 02:09:53;;;;;;;9.43;5.30;;;;;;;0.61;100.00;97828.44;10417476;28;20212;-59
2022/03/15 02:14:54;;;;;;;12.23;5.40;;;;;;;0.60;100.00;97832.78;10417559;28;20667;-59
2022/03/15 02:19:54;;;;;;;9.03;4.40;;;;;;;0.78;100.00;97838.03;10417105;28;20760;-59
2022/03/15 02:24:54;;;;;;;9.60;5.00;;;;;;;0.68;100.00;97830.69;10417424;28;20199;-58
2022/03/15 02:29:55;;;;;;;7.73;5.03;;;;;;;0.79;100.00;97837.13;10416828;28;20239;-50
2022/03/15 02:34:55;;;;;;;8.40;4.77;;;;;;;0.78;100.00;97838.03;10417089;28;20214;-55
2022/03/15 02:39:55;;;;;;;10.07;5.33;;;;;;;0.65;100.00;97830.00;10416053;28;20240;-53
2022/03/15 02:44:56;;;;;;;9.17;5.13;;;;;;;0.62;100.00;97818.06;10416511;28;20557;-50
2022/03/15 02:49:58;;;;;;;8.47;5.33;;;;;;;0.58;100.00;97826.84;10415896;28;20247;-55
2022/03/15 02:54:58;;;;;;;9.57;5.43;;;;;;;0.41;100.00;97819.00;10415474;28;20203;-56
2022/03/15 02:59:59;;;;;;;13.43;5.93;;;;;;;0.27;100.00;97823.00;10415061;28;20228;-53
2022/03/15 03:04:59;;;;;;;32.10;14.80;;;;;;;0.25;100.00;97829.97;10415187;28;20192;-58
2022/03/15 03:10:00;;;;;;;8.57;6.63;;;;;;;0.25;100.00;97819.66;10414923;28;20343;-58
2022/03/15 03:15:01;;;;;;;9.73;5.77;;;;;;;0.29;100.00;97834.09;10414931;28;20200;-54
2022/03/15 03:20:04;;;;;;;11.47;6.57;;;;;;;0.19;100.00;97839.72;10415043;28;20824;-58
2022/03/15 03:25:05;;;;;;;14.40;6.30;;;;;;;0.24;100.00;97837.75;10414739;28;20262;-51
2022/03/15 03:30:06;;;;;;;14.40;4.23;;;;;;;0.28;100.00;97852.19;10425887;22;20338;-57
2022/03/15 03:35:07;;;;;;;10.50;5.53;;;;;;;0.15;100.00;97854.44;10414576;28;20199;-57
2022/03/15 03:40:08;;;;;;;7.77;5.23;;;;;;;0.18;100.00;97844.00;10413839;28;20324;-57
2022/03/15 03:45:09;;;;;;;9.40;5.63;;;;;;;0.22;100.00;97837.00;10414353;28;20302;-57
2022/03/15 03:50:09;;;;;;;10.10;5.30;;;;;;;0.13;100.00;97827.91;10413921;28;20227;-59
2022/03/15 03:55:10;;;;;;;7.80;4.90;;;;;;;0.05;100.00;97832.56;10413797;28;20689;-59
2022/03/15 04:00:11;;;;;;;10.37;5.00;;;;;;;-0.09;100.00;97830.50;10413468;28;20231;-62
2022/03/15 04:05:15;;;;;;;14.40;6.33;;;;;;;-0.10;100.00;97824.53;10413688;28;20208;-60
2022/03/15 04:10:21;;;;;;;8.47;5.37;;;;;;;-0.04;100.00;97828.59;10413329;28;20205;-58
2022/03/15 04:15:24;;;;;;;9.07;5.00;;;;;;;-0.13;100.00;97814.34;10413270;28;20189;-61
2022/03/15 04:20:25;;;;;;;7.53;4.67;;;;;;;-0.06;100.00;97809.78;10412643;28;20236;-60
2022/03/15 04:25:25;;;;;;;8.93;4.77;;;;;;;-0.14;100.00;97814.41;10412199;28;20196;-58
2022/03/15 04:30:30;;;;;;;7.90;4.00;;;;;;;-0.17;100.00;97810.22;10412263;28;20267;-58
2022/03/15 04:35:30;;;;;;;8.33;4.60;;;;;;;-0.17;100.00;97817.13;10412169;28;20192;-56
2022/03/15 04:40:31;;;;;;;6.43;3.70;;;;;;;-0.15;100.00;97829.03;10411748;28;20221;-56
2022/03/15 04:45:32;;;;;;;9.00;4.53;;;;;;;-0.09;100.00;97822.78;10412013;28;20193;-57
2022/03/15 04:50:33;;;;;;;8.33;4.13;;;;;;;-0.08;100.00;97820.16;10411766;28;20205;-57
2022/03/15 04:55:33;;;;;;;6.83;3.87;;;;;;;0.02;100.00;97801.78;10411608;28;20644;-55
2022/03/15 05:00:33;;;;;;;8.93;3.83;;;;;;;-0.09;100.00;97807.34;10411092;28;20252;-55
2022/03/15 05:05:36;;;;;;;10.17;5.53;;;;;;;-0.13;100.00;97806.63;10411754;28;20272;-55
2022/03/15 05:15:56;;;;;;;9.03;4.50;;;;;;;0.01;100.00;97793.19;10411325;28;20208;-56
2022/03/15 05:20:56;;;;;;;9.00;4.10;;;;;;;0.10;100.00;97791.97;10411147;28;20303;-58
2022/03/15 05:25:57;;;;;;;6.23;3.33;;;;;;;0.09;100.00;97792.84;10410963;28;20200;-55
2022/03/15 05:30:57;;;;;;;9.77;5.67;;;;;;;0.03;100.00;97778.53;10410719;28;20228;-57
2022/03/15 05:35:58;;;;;;;10.73;6.00;;;;;;;0.14;100.00;97790.94;10412638;28;20279;-58
2022/03/15 05:40:58;;;;;;;9.10;4.70;;;;;;;0.11;100.00;97789.31;10419019;28;20219;-56
2022/03/15 05:45:58;;;;;;;8.63;5.23;;;;;;;0.05;100.00;97779.28;10419211;28;20196;-56
2022/03/15 05:50:59;;;;;;;9.60;5.47;;;;;;;0.09;100.00;97785.13;10418563;28;20208;-59
2022/03/15 05:55:59;;;;;;;9.93;5.37;;;;;;;0.19;100.00;97785.59;10418819;28;20323;-56
2022/03/15 06:00:59;;;;;;;6.30;3.70;;;;;;;0.19;100.00;97783.03;10418337;28;20216;-57
2022/03/15 06:06:00;;;;;;;10.93;5.03;;;;;;;0.10;100.00;97785.06;10418350;28;20227;-58
2022/03/15 06:11:02;;;;;;;6.53;4.33;;;;;;;0.20;100.00;97784.66;10418018;28;20224;-55
2022/03/15 06:16:03;;;;;;;7.67;4.73;;;;;;;0.24;100.00;97775.91;10417752;28;20207;-58
2022/03/15 06:21:03;;;;;;;6.83;3.80;;;;;;;0.39;100.00;97782.16;10417674;28;20223;-60
2022/03/15 06:26:03;;;;;;;8.47;4.80;;;;;;;0.52;100.00;97775.53;10417431;28;20239;-58
2022/03/15 06:31:04;;;;;;;6.53;4.13;;;;;;;0.63;100.00;97778.50;10417119;28;20263;-56
2022/03/15 06:36:11;;;;;;;9.50;4.43;;;;;;;0.70;100.00;97772.16;10416676;28;20656;-58
2022/03/15 06:41:11;;;;;;;7.03;3.80;;;;;;;0.79;100.00;97767.50;10416639;28;20271;-57
2022/03/15 06:46:12;;;;;;;5.97;3.33;;;;;;;0.95;100.00;97778.78;10416295;28;20729;-57
2022/03/15 06:51:13;;;;;;;11.77;4.57;;;;;;;1.13;100.00;97771.91;10416223;28;20215;-55
2022/03/15 06:56:13;;;;;;;6.00;4.00;;;;;;;1.37;100.00;97769.09;10416653;28;20196;-59
2022/03/15 07:01:16;;;;;;;7.27;4.97;;;;;;;1.58;100.00;97764.66;10415991;28;20288;-58
2022/03/15 07:06:17;;;;;;;6.93;3.37;;;;;;;1.78;100.00;97759.34;10415915;28;20237;-61
2022/03/15 07:11:17;;;;;;;7.70;3.67;;;;;;;1.92;100.00;97761.25;10415975;28;20773;-59
2022/03/15 07:16:19;;;;;;;7.13;3.77;;;;;;;2.04;100.00;97770.13;10415588;28;20211;-59
2022/03/15 07:21:20;;;;;;;8.17;4.27;;;;;;;2.35;100.00;97753.06;10415513;28;20281;-59
2022/03/15 07:26:20;;;;;;;6.37;3.83;;;;;;;2.67;100.00;97755.72;10414360;28;20203;-57
2022/03/15 07:31:20;;;;;;;3.80;2.83;;;;;;;2.82;100.00;97762.66;10413009;28;20315;-60
2022/03/15 07:36:22;;;;;;;9.37;4.00;;;;;;;3.00;100.00;97766.00;10414447;28;20218;-58
2022/03/15 07:41:23;;;;;;;4.60;3.43;;;;;;;3.17;100.00;97766.81;10414202;28;20224;-58
2022/03/15 07:46:23;;;;;;;7.60;3.53;;;;;;;3.39;100.00;97771.66;10414777;28;20196;-62
2022/03/15 07:51:24;;;;;;;6.60;3.77;;;;;;;3.71;100.00;97756.06;10414078;28;20208;-62
2022/03/15 07:56:24;;;;;;;4.40;3.10;;;;;;;4.01;100.00;97747.44;10412439;28;20193;-61
2022/03/15 08:01:25;;;;;;;6.60;3.80;;;;;;;4.53;100.00;97752.09;10412698;28;20240;-60
2022/03/15 08:06:25;;;;;;;4.57;3.50;;;;;;;4.84;100.00;97742.47;10413671;28;20200;-58
2022/03/15 08:11:26;;;;;;;4.87;3.47;;;;;;;4.93;100.00;97733.25;10413330;28;20220;-61
2022/03/15 08:16:26;;;;;;;6.07;3.90;;;;;;;5.10;100.00;97726.97;10411540;28;20208;-61
2022/03/15 08:21:27;;;;;;;6.10;3.93;;;;;;;5.74;100.00;97715.97;10412296;28;20224;-60
2022/03/15 08:26:27;;;;;;;8.73;3.93;;;;;;;6.29;100.00;97709.69;10412076;28;20275;-62
2022/03/15 08:31:28;;;;;;;6.67;3.50;;;;;;;6.36;100.00;97713.53;10411874;28;20374;-61
2022/03/15 08:36:28;;;;;;;6.93;3.40;;;;;;;6.93;100.00;97699.16;10411250;28;20188;-59
2022/03/15 08:41:28;;;;;;;7.07;4.23;;;;;;;7.30;100.00;97693.06;10410487;28;20224;-60
2022/03/15 08:46:29;;;;;;;10.07;5.10;;;;;;;7.97;95.25;97655.09;10411394;28;20554;-57
2022/03/15 08:51:30;;;;;;;7.50;4.80;;;;;;;8.43;91.66;97646.31;10411027;28;20236;-61
2022/03/15 08:56:32;;;;;;;9.20;4.80;;;;;;;9.13;84.47;97606.88;10410053;28;20210;-56
2022/03/15 09:01:32;;;;;;;12.60;5.40;;;;;;;9.35;80.09;97562.31;10410689;28;20278;-59
2022/03/15 09:06:32;;;;;;;8.93;5.50;;;;;;;9.18;77.29;97561.13;10411211;28;20189;-58
2022/03/15 09:11:33;;;;;;;10.23;4.33;;;;;;;10.03;74.89;97537.47;10408179;28;20197;-62
2022/03/15 09:16:34;;;;;;;7.90;4.63;;;;;;;10.28;72.34;97521.28;10408880;28;20192;-57
2022/03/15 09:21:34;;;;;;;10.80;5.13;;;;;;;10.18;71.99;97530.91;10410323;28;20286;-59
2022/03/15 09:26:36;;;;;;;8.77;5.40;;;;;;;10.04;71.26;97513.78;10410330;28;20242;-57
2022/03/15 09:31:36;;;;;;;9.83;4.57;;;;;;;10.66;67.97;97469.94;10459767;22;20752;-60
2022/03/15 09:36:37;;;;;;;18.87;13.77;;;;;;;10.87;69.19;97503.00;10450775;28;20195;-59
2022/03/15 09:41:41;;;;;;;9.93;4.70;;;;;;;10.79;65.71;97463.56;10451126;28;20588;-57
2022/03/15 09:46:43;;;;;;;9.80;4.20;;;;;;;10.93;65.96;97467.56;10450200;28;20203;-57
2022/03/15 09:51:47;;;;;;;10.68;4.38;;;;;;;10.83;66.45;97449.25;10450545;28;20212;-54
2022/03/15 09:56:47;;;;;;;8.07;4.33;;;;;;;11.01;66.42;97444.09;10451257;28;20195;-58
2022/03/15 10:01:50;;;;;;;9.30;4.07;;;;;;;11.16;65.36;97437.41;10448791;28;20342;-58
2022/03/15 10:06:52;;;;;;;5.37;3.50;;;;;;;10.92;63.78;97403.81;10447423;28;20204;-56
2022/03/15 10:11:52;;;;;;;11.17;3.83;;;;;;;10.67;64.89;97424.44;10445376;28;20239;-59
2022/03/15 10:16:59;;;;;;;7.00;3.30;;;;;;;10.75;64.19;97399.28;10445529;28;20326;-59
2022/03/15 10:22:02;;;;;;;5.47;3.20;;;;;;;11.01;63.92;97381.16;10450714;28;20717;-58
2022/03/15 10:27:02;;;;;;;11.80;4.20;;;;;;;10.29;66.44;97439.16;10456048;28;20192;-59
2022/03/15 10:32:04;;;;;;;6.97;3.53;;;;;;;10.64;64.49;97395.03;10458076;28;20706;-55
2022/03/15 10:37:04;;;;;;;7.23;2.93;;;;;;;10.20;64.67;97390.22;10457243;28;20192;-58
2022/03/15 10:42:08;;;;;;;5.27;3.00;;;;;;;10.04;64.75;97397.78;10457271;28;20227;-57
2022/03/15 10:47:14;;;;;;;4.87;3.23;;;;;;;9.54;65.92;97399.47;10457466;28;20192;-58
2022/03/15 10:52:30;;;;;;;4.87;3.13;;;;;;;9.53;66.67;97431.81;10455352;28;20303;-56
2022/03/15 10:57:53;;;;;;;4.70;2.70;;;;;;;9.59;65.98;97405.13;10455126;28;20194;-58
2022/03/15 11:02:54;;;;;;;7.50;4.07;;;;;;;9.87;65.76;97401.88;10456282;28;20212;-56
2022/03/15 11:07:55;;;;;;;8.37;4.53;;;;;;;9.71;65.96;97386.69;10456160;28;20187;-58
2022/03/15 11:12:57;;;;;;;6.83;3.67;;;;;;;9.93;65.77;97394.31;10455856;28;20257;-59
2022/03/15 11:18:00;;;;;;;7.53;3.60;;;;;;;10.20;65.19;97371.88;10454804;28;20216;-59
2022/03/15 11:23:01;;;;;;;8.40;3.93;;;;;;;10.39;62.93;97328.34;10454022;28;20224;-59
2022/03/15 11:28:09;;;;;;;5.57;3.10;;;;;;;10.09;64.16;97361.53;10455965;28;20184;-59
2022/03/15 11:33:10;;;;;;;7.47;3.50;;;;;;;10.39;63.67;97334.41;10455019;28;20232;-59
2022/03/15 11:38:13;;;;;;;5.47;3.20;;;;;;;10.27;62.47;97304.06;10454748;28;20248;-59
2022/03/15 11:43:38;;;;;;;6.50;3.07;;;;;;;10.51;61.80;97280.06;10455205;28;20424;-59
2022/03/15 11:48:53;;;;;;;5.53;2.90;;;;;;;10.74;61.18;97274.50;10454913;28;20215;-59
2022/03/15 11:54:01;;;;;;;6.40;3.27;;;;;;;10.80;60.45;97222.31;10453394;28;20196;-59
2022/03/15 11:59:02;;;;;;;4.07;2.97;;;;;;;10.93;60.12;97232.44;10436849;28;20842;-59
2022/03/15 12:04:05;;;;;;;8.07;3.03;;;;;;;10.66;60.18;97218.38;10454332;28;20182;-58
2022/03/15 12:09:12;;;;;;;11.53;2.63;;;;;;;10.92;58.29;97182.78;10453927;28;20212;-60
2022/03/15 12:14:18;;;;;;;9.23;2.90;;;;;;;11.30;57.46;97145.03;10454120;28;20223;-60
2022/03/15 12:19:34;;;;;;;4.83;2.67;;;;;;;11.05;57.79;97150.00;10453332;28;20227;-60
2022/03/15 12:24:37;;;;;;;4.93;2.90;;;;;;;11.35;57.55;97139.31;10452904;28;20851;-58
2022/03/15 12:29:37;;;;;;;6.40;2.73;;;;;;;11.43;55.64;97073.78;10448920;28;20227;-58
2022/03/15 12:34:41;;;;;;;10.10;2.57;;;;;;;11.00;56.53;97086.72;10450577;28;20662;-59
2022/03/15 12:39:53;;;;;;;5.10;2.30;;;;;;;11.73;54.79;97063.81;10433401;28;20297;-60
2022/03/15 12:45:02;;;;;;;5.37;2.63;;;;;;;11.85;54.82;97053.88;10451658;28;20223;-60
2022/03/15 12:50:13;;;;;;;5.28;2.42;;;;;;;12.84;52.30;97021.69;10451746;28;20227;-61
2022/03/15 12:55:30;;;;;;;7.15;2.30;;;;;;;12.24;54.13;97029.81;10451731;28;20242;-61
2022/03/15 13:00:32;;;;;;;6.95;2.28;;;;;;;12.26;54.12;97025.19;10450209;28;20231;-60
2022/03/15 13:05:33;;;;;;;5.37;2.70;;;;;;;11.85;55.82;97051.25;10451560;28;20202;-60
2022/03/15 13:10:38;;;;;;;4.10;2.13;;;;;;;11.65;56.72;97064.59;10451391;28;20203;-60
2022/03/15 13:15:40;;;;;;;7.20;3.00;;;;;;;11.24;58.85;97101.84;10451876;28;20620;-59
2022/03/15 13:20:41;;;;;;;5.20;2.60;;;;;;;11.29;59.70;97111.88;10433398;28;20228;-60
2022/03/15 13:25:48;;;;;;;5.03;2.83;;;;;;;11.43;59.00;97085.09;10451003;28;20196;-61
2022/03/15 13:30:52;;;;;;;5.65;2.83;;;;;;;11.55;59.32;97090.94;10450222;28;20236;-60
2022/03/15 13:36:04;;;;;;;5.83;2.63;;;;;;;11.08;59.83;97075.47;10451294;28;20203;-60
2022/03/15 13:41:06;;;;;;;10.90;2.90;;;;;;;11.54;60.08;97083.22;10450864;28;20231;-61
2022/03/15 13:46:08;;;;;;;8.17;2.87;;;;;;;11.49;61.17;97088.91;10451205;28;20199;-60
2022/03/15 13:51:10;;;;;;;5.97;2.90;;;;;;;10.79;60.97;97073.09;10433222;28;20721;-61
2022/03/15 13:56:20;;;;;;;10.90;3.63;;;;;;;10.43;62.50;97092.19;10451670;28;20196;-61
2022/03/15 14:01:20;;;;;;;8.37;3.47;;;;;;;10.26;65.17;97126.97;10457794;28;20235;-62
2022/03/15 14:06:33;;;;;;;7.40;3.20;;;;;;;10.26;65.84;97122.56;10458933;28;20199;-62
2022/03/15 14:11:40;;;;;;;6.00;2.80;;;;;;;10.37;64.69;97118.13;10452253;28;20203;-63
2022/03/15 14:16:49;;;;;;;8.13;3.33;;;;;;;10.03;65.12;97098.56;10457859;28;20274;-62
2022/03/15 14:22:01;;;;;;;4.73;3.10;;;;;;;9.87;64.47;97096.53;10457967;28;20228;-62
2022/03/15 14:27:01;;;;;;;7.33;3.43;;;;;;;9.73;65.32;97096.97;10440042;28;20689;-62
2022/03/15 14:32:05;;;;;;;12.27;4.13;;;;;;;9.73;66.23;97096.97;10457595;28;20232;-61
2022/03/15 14:37:07;;;;;;;5.97;3.20;;;;;;;9.60;66.60;97098.13;10455960;28;20246;-61
2022/03/15 14:42:09;;;;;;;6.33;3.67;;;;;;;9.47;66.31;97092.34;10457411;28;20263;-60
2022/03/15 14:47:15;;;;;;;9.63;3.97;;;;;;;9.16;66.60;97084.69;10456847;28;20196;-60
2022/03/15 14:52:17;;;;;;;8.93;3.70;;;;;;;9.14;66.84;97085.78;10456538;28;20208;-57
2022/03/15 14:57:21;;;;;;;5.13;3.17;;;;;;;9.04;67.83;97104.06;10456680;28;20556;-60
2022/03/15 15:02:23;;;;;;;7.93;3.87;;;;;;;8.92;67.96;97096.34;10456459;28;20228;-61
2022/03/15 15:07:24;;;;;;;10.60;4.13;;;;;;;8.98;66.82;97066.25;10437091;28;20234;-61
2022/03/15 15:12:25;;;;;;;7.97;4.40;;;;;;;8.97;69.07;97095.13;10455768;28;20222;-62
2022/03/15 15:17:27;;;;;;;9.00;4.50;;;;;;;9.00;67.51;97046.00;10456034;28;20196;-62
2022/03/15 15:22:28;;;;;;;8.30;4.17;;;;;;;9.16;67.60;97044.63;10455807;28;20729;-62
2022/03/15 15:27:28;;;;;;;8.97;3.77;;;;;;;9.04;67.34;97023.88;10444260;28;20196;-62
2022/03/15 15:32:30;;;;;;;8.57;4.10;;;;;;;9.03;68.19;97032.66;10432751;22;20671;-61
2022/03/15 15:37:30;;;;;;;8.90;4.77;;;;;;;8.98;67.77;96994.88;10408937;28;20578;-63
2022/03/15 15:42:31;;;;;;;10.53;5.03;;;;;;;8.74;68.54;96991.72;10408078;28;20220;-57
2022/03/15 15:47:32;;;;;;;9.30;5.20;;;;;;;8.27;70.65;97006.34;10408520;28;20258;-59
2022/03/15 15:52:33;;;;;;;7.83;5.63;;;;;;;8.11;71.86;97020.72;10407988;28;20217;-59
2022/03/15 15:57:33;;;;;;;7.93;5.00;;;;;;;8.51;70.43;96995.56;10408288;28;20671;-61
2022/03/15 16:02:36;;;;;;;13.53;5.67;;;;;;;8.27;72.70;97019.41;10408125;28;20231;-56
2022/03/15 16:07:43;;;;;;;9.67;5.63;;;;;;;8.47;72.05;97008.06;10408947;28;20574;-57
2022/03/15 16:12:44;;;;;;;10.93;6.37;;;;;;;8.36;72.92;96984.66;10408313;28;20296;-57
2022/03/15 16:17:45;;;;;;;12.23;6.63;;;;;;;8.07;73.39;97027.19;10408321;28;20196;-60
2022/03/15 16:22:46;;;;;;;10.87;6.20;;;;;;;7.89;74.73;97066.13;10407174;28;20212;-59
2022/03/15 16:27:46;;;;;;;13.07;7.17;;;;;;;7.85;75.34;97062.13;10408788;28;20203;-57
2022/03/15 16:32:49;;;;;;;18.53;7.40;;;;;;;8.06;74.66;97056.03;10407040;28;20311;-57
2022/03/15 16:37:49;;;;;;;10.67;6.00;;;;;;;7.85;76.48;97096.03;10396890;28;20247;-60
2022/03/15 16:42:50;;;;;;;14.70;7.10;;;;;;;8.05;75.23;97068.22;10400533;28;20223;-60
2022/03/15 16:47:50;;;;;;;14.80;6.63;;;;;;;8.08;76.45;97081.00;10407281;28;20253;-60
2022/03/15 16:52:51;;;;;;;12.00;7.23;;;;;;;8.08;76.50;97054.09;10407708;28;20208;-57
2022/03/15 16:57:54;;;;;;;15.17;6.97;;;;;;;7.82;80.80;97068.41;10406961;28;20193;-58
2022/03/15 17:02:55;;;;;;;15.07;6.77;;;;;;;7.70;82.82;97060.81;10405614;28;20223;-57
2022/03/15 17:07:55;;;;;;;18.33;7.63;;;;;;;7.56;84.19;97041.13;10407144;28;20191;-59
2022/03/15 17:12:57;;;;;;;15.97;7.77;;;;;;;7.47;84.20;97019.25;10406547;28;20323;-58
2022/03/15 17:17:58;;;;;;;11.77;7.63;;;;;;;7.41;88.57;97033.66;10405783;28;20195;-59
2022/03/15 17:23:02;;;;;;;16.87;7.47;;;;;;;7.16;93.99;97018.41;10410379;28;20212;-62
2022/03/15 17:28:03;;;;;;;11.60;6.60;;;;;;;7.26;97.00;97011.47;10409874;28;20208;-61
2022/03/15 17:33:05;;;;;;;14.87;8.27;;;;;;;6.91;100.00;96999.59;10419699;28;20323;-62
2022/03/15 17:38:16;;;;;;;45.17;22.57;;;;;;;6.67;100.00;97020.66;10423887;28;20208;-61
2022/03/15 17:43:19;;;;;;;14.67;7.10;;;;;;;6.55;100.00;97023.28;10424227;28;20235;-61
2022/03/15 17:48:19;;;;;;;16.77;8.67;;;;;;;6.17;100.00;97008.13;10421645;28;20715;-62
2022/03/15 17:53:20;;;;;;;21.83;9.33;;;;;;;6.09;100.00;97003.53;10421195;28;20216;-63
2022/03/15 17:58:23;;;;;;;23.63;12.00;;;;;;;5.70;100.00;96987.50;10403418;28;20269;-62
2022/03/15 18:03:28;;;;;;;17.17;9.30;;;;;;;5.61;100.00;96999.41;10419539;28;20240;-61
2022/03/15 18:08:31;;;;;;;16.67;8.97;;;;;;;5.52;100.00;97000.13;10421993;28;20188;-61
2022/03/15 18:13:38;;;;;;;17.17;10.33;;;;;;;5.37;100.00;96991.72;10422011;28;20226;-61
2022/03/15 18:18:40;;;;;;;37.77;21.10;;;;;;;5.25;100.00;96990.88;10423088;28;20709;-61
2022/03/15 18:23:41;;;;;;;23.47;12.90;;;;;;;5.27;100.00;96985.59;10422767;28;20224;-62
2022/03/15 18:28:46;;;;;;;22.53;11.43;;;;;;;5.18;100.00;96971.53;10423058;28;20196;-61
2022/03/15 18:33:48;;;;;;;20.53;10.77;;;;;;;5.19;100.00;96978.34;10422347;28;20244;-60
2022/03/15 18:38:48;;;;;;;22.97;11.10;;;;;;;5.01;100.00;96959.81;10422271;28;20807;-60
2022/03/15 18:43:50;;;;;;;21.23;14.10;;;;;;;5.10;100.00;96940.09;10418347;28;20220;-61
2022/03/15 18:48:50;;;;;;;26.47;15.87;;;;;;;4.75;100.00;96939.25;10416077;28;20737;-60
2022/03/15 18:53:51;;;;;;;27.57;15.33;;;;;;;4.78;100.00;96938.19;10415980;28;20256;-61
2022/03/15 18:58:53;;;;;;;27.63;16.63;;;;;;;4.82;100.00;96924.88;10415512;28;20699;-61
2022/03/15 19:03:55;;;;;;;22.13;14.07;;;;;;;4.82;100.00;96934.41;10415412;28;20209;-61
2022/03/15 19:08:56;;;;;;;24.83;14.70;;;;;;;4.79;100.00;96926.84;10415282;28;20315;-59
2022/03/15 19:13:56;;;;;;;29.57;16.60;;;;;;;4.68;100.00;96940.63;10415024;28;20358;-58
2022/03/15 19:18:59;;;;;;;31.53;18.73;;;;;;;4.68;100.00;96939.81;10414927;28;20232;-60
2022/03/15 19:23:59;;;;;;;29.27;15.70;;;;;;;4.80;100.00;96936.31;10414636;28;20687;-61
2022/03/15 19:29:01;;;;;;;25.80;14.70;;;;;;;4.87;100.00;96934.06;10414728;28;20180;-58
2022/03/15 19:34:01;;;;;;;34.60;19.80;;;;;;;4.83;100.00;96938.66;10414091;28;20666;-60
2022/03/15 19:39:02;;;;;;;32.10;19.87;;;;;;;4.86;100.00;96943.63;10413629;28;20228;-59
2022/03/15 19:44:03;;;;;;;47.77;26.00;;;;;;;4.88;100.00;96939.13;10413859;28;20208;-57
2022/03/15 19:49:06;;;;;;;46.63;24.77;;;;;;;4.97;100.00;96937.63;10413585;28;20184;-60
2022/03/15 19:54:06;;;;;;;49.77;24.37;;;;;;;4.95;100.00;96942.13;10412342;28;20208;-60
2022/03/15 19:59:13;;;;;;;39.60;23.13;;;;;;;4.92;100.00;96925.00;10413167;28;20761;-60
2022/03/15 20:04:19;;;;;;;39.57;23.27;;;;;;;4.92;100.00;96919.81;10412980;28;20216;-60
2022/03/15 20:09:19;;;;;;;37.27;21.97;;;;;;;5.13;100.00;96919.09;10412973;28;20326;-61
2022/03/15 20:14:21;;;;;;;34.67;20.40;;;;;;;5.23;100.00;96912.25;10412498;28;20224;-61
2022/03/15 20:19:21;;;;;;;33.20;20.73;;;;;;;5.12;100.00;96904.47;10412727;28;20224;-61
2022/03/15 20:24:24;;;;;;;38.47;22.17;;;;;;;5.06;100.00;96907.53;10412130;28;20220;-60
2022/03/15 20:29:24;;;;;;;39.77;21.23;;;;;;;5.18;100.00;96899.63;10412281;28;20184;-60
2022/03/15 20:34:24;;;;;;;32.67;20.63;;;;;;;5.18;100.00;96898.81;10411635;28;20263;-61
2022/03/15 20:39:25;;;;;;;42.37;24.80;;;;;;;5.11;100.00;96889.84;10411268;28;20307;-61
2022/03/15 20:44:26;;;;;;;42.13;26.50;;;;;;;5.13;100.00;96898.31;10414386;28;20235;-58
2022/03/15 20:49:28;;;;;;;49.83;27.40;;;;;;;5.04;100.00;96899.88;10413431;28;20215;-55
2022/03/15 20:54:29;;;;;;;42.90;25.83;;;;;;;4.95;100.00;96906.59;10411281;28;20213;-54
2022/03/15 20:59:35;;;;;;;43.87;25.37;;;;;;;4.89;100.00;96903.63;10410924;28;20217;-55
2022/03/15 21:04:35;;;;;;;50.80;27.43;;;;;;;4.77;100.00;96906.19;10410409;28;20208;-54
2022/03/15 21:09:38;;;;;;;54.87;31.63;;;;;;;4.72;100.00;96905.72;10410859;28;20548;-53
2022/03/15 21:14:39;;;;;;;57.33;32.03;;;;;;;4.68;100.00;96906.06;10410575;28;20212;-53
2022/03/15 21:19:50;;;;;;;57.47;31.00;;;;;;;4.70;100.00;96894.66;10411185;28;20239;-54
2022/03/15 21:24:53;;;;;;;57.47;32.47;;;;;;;4.72;100.00;96907.50;10410894;28;20224;-54
2022/03/15 21:29:54;;;;;;;64.30;33.73;;;;;;;4.62;100.00;96904.75;10410862;28;20188;-53
2022/03/15 21:34:54;;;;;;;63.67;32.93;;;;;;;4.60;100.00;96910.06;10431577;23;20244;-60
2022/03/15 21:39:57;;;;;;;68.00;32.63;;;;;;;4.57;100.00;96920.66;10409908;28;20306;-59
2022/03/15 21:44:58;;;;;;;62.57;32.17;;;;;;;4.60;100.00;96912.66;10410916;28;20231;-59
2022/03/15 21:50:01;;;;;;;59.57;30.77;;;;;;;4.57;100.00;96899.91;10410637;28;20192;-60
2022/03/15 21:55:07;;;;;;;67.73;30.33;;;;;;;4.57;100.00;96897.31;10410614;28;20588;-61
2022/03/15 22:00:11;;;;;;;58.73;31.27;;;;;;;4.61;100.00;96893.56;10410437;28;20371;-62
2022/03/15 22:05:20;;;;;;;63.97;31.00;;;;;;;4.61;100.00;96897.94;10410226;28;20219;-62
2022/03/15 22:10:23;;;;;;;58.90;31.63;;;;;;;4.61;100.00;96901.34;10410636;28;20231;-62
2022/03/15 22:15:24;;;;;;;68.37;32.80;;;;;;;4.56;100.00;96902.63;10409978;28;20594;-61
2022/03/15 22:20:26;;;;;;;68.43;33.83;;;;;;;4.55;100.00;96907.00;10416037;28;20221;-62
2022/03/15 22:25:27;;;;;;;66.97;34.10;;;;;;;4.53;100.00;96908.03;10417659;28;20261;-61
2022/03/15 23:17:55;;;;;;;81.30;40.10;;;;;;;4.59;100.00;96975.03;10415607;28;20216;-61
2022/03/15 23:22:55;;;;;;;77.07;37.80;;;;;;;4.68;100.00;96983.94;10415729;28;20742;-62
2022/03/15 23:28:05;;;;;;;80.30;39.47;;;;;;;4.57;100.00;96982.94;10414824;28;20196;-62
2022/03/15 23:33:07;;;;;;;82.67;39.17;;;;;;;4.58;100.00;96986.34;10414943;28;20642;-61
2022/03/15 23:38:07;;;;;;;72.97;38.63;;;;;;;4.63;100.00;96999.84;10414753;28;20215;-62
2022/03/15 23:43:08;;;;;;;79.43;39.30;;;;;;;4.55;100.00;96995.22;10414608;28;20223;-61
2022/03/15 23:48:08;;;;;;;72.63;37.37;;;;;;;4.55;100.00;96999.53;10414751;28;20196;-63
2022/03/15 23:53:09;;;;;;;77.00;38.37;;;;;;;4.52;100.00;97007.56;10414082;28;20208;-62
2022/03/15 23:58:09;;;;;;;73.37;36.07;;;;;;;4.59;100.00;97012.19;10414221;28;20193;-61
